Time;durP1;ratioP1;P1;durP2;ratioP2;P2;SDS_P1;SDS_P2;PMS_P1;PMS_P2;Temp;Humidity;BMP_temperature;BMP_pressure;BME280_temperature;BME280_humidity;BME280_pressure;Samples;Min_cycle;Max_cycle;Signal;HPM_P1;HPM_P2
2023/01/01 00:01:25;;;;;;;20.90;11.85;;;;;;;7.38;82.88;100709.35;1564306;90;21054;-55
2023/01/01 00:03:57;;;;;;;18.70;11.83;;;;;;;7.41;82.92;100717.19;1577440;91;21119;-54
2023/01/01 00:06:26;;;;;;;20.80;12.07;;;;;;;7.43;82.92;100713.78;1584130;90;21115;-55
2023/01/01 00:11:44;;;;;;;20.95;11.65;;;;;;;7.47;82.95;100706.97;1535862;93;21134;-55
2023/01/01 00:14:15;;;;;;;20.35;11.95;;;;;;;7.49;82.99;100710.38;1506423;94;22039;-55
2023/01/01 00:16:45;;;;;;;19.65;11.80;;;;;;;7.50;83.03;100703.39;1535501;93;21095;-55
2023/01/01 00:19:16;;;;;;;22.75;12.10;;;;;;;7.52;83.04;100700.50;1524462;92;21172;-55
2023/01/01 00:21:45;;;;;;;20.55;11.88;;;;;;;7.53;83.11;100707.66;1559233;92;21105;-55
2023/01/01 00:24:16;;;;;;;21.90;11.75;;;;;;;7.55;83.15;100712.42;1557740;90;21114;-55
2023/01/01 00:26:46;;;;;;;19.85;11.90;;;;;;;7.55;83.16;100714.64;1592618;86;21072;-55
2023/01/01 00:29:15;;;;;;;20.68;11.80;;;;;;;7.57;83.16;100708.50;1666507;86;21567;-56
2023/01/01 00:31:46;;;;;;;20.72;11.70;;;;;;;7.59;83.18;100706.97;1584882;90;21150;-55
2023/01/01 00:34:18;;;;;;;23.38;12.58;;;;;;;7.61;83.20;100711.23;1591443;90;21130;-55
2023/01/01 00:36:48;;;;;;;21.20;12.40;;;;;;;7.62;83.25;100703.39;1592066;90;21070;-55
2023/01/01 00:39:21;;;;;;;21.17;12.47;;;;;;;7.63;83.26;100691.97;1591594;90;21076;-54
2023/01/01 00:41:55;;;;;;;21.60;12.68;;;;;;;7.65;83.31;100699.47;1591626;90;21490;-56
2023/01/01 00:44:25;;;;;;;23.73;12.53;;;;;;;7.65;83.32;100696.73;1571281;90;21074;-55
2023/01/01 00:46:55;;;;;;;20.10;11.10;;;;;;;7.67;83.39;100701.51;1591592;90;21102;-55
2023/01/01 00:49:25;;;;;;;18.07;10.58;;;;;;;7.70;83.46;100703.04;1614092;86;21080;-55
2023/01/01 00:51:54;;;;;;;19.85;11.28;;;;;;;7.71;83.53;100702.88;1639861;86;21060;-55
2023/01/01 00:54:25;;;;;;;18.55;10.95;;;;;;;7.74;83.57;100698.44;1640031;86;21107;-54
2023/01/01 00:56:56;;;;;;;19.42;11.30;;;;;;;7.77;83.59;100689.91;1666765;86;21106;-55
2023/01/01 00:59:27;;;;;;;18.45;10.13;;;;;;;7.79;83.60;100678.31;1640087;86;21077;-55
2023/01/01 01:01:58;;;;;;;17.12;9.95;;;;;;;7.83;83.54;100682.94;1666609;86;21451;-55
2023/01/01 01:04:28;;;;;;;21.48;11.75;;;;;;;7.86;83.45;100677.14;1657381;86;21044;-55
2023/01/01 01:06:58;;;;;;;17.00;10.08;;;;;;;7.86;83.43;100668.44;1666587;86;21083;-54
2023/01/01 01:09:28;;;;;;;15.70;9.98;;;;;;;7.89;83.43;100676.28;1667081;86;21047;-56
2023/01/01 01:11:58;;;;;;;16.65;9.55;;;;;;;7.92;83.45;100677.81;1657466;86;21064;-55
2023/01/01 01:14:30;;;;;;;17.95;10.00;;;;;;;7.92;83.51;100685.48;1662046;86;21519;-56
2023/01/01 01:17:00;;;;;;;18.25;9.83;;;;;;;7.93;83.55;100680.36;1639948;86;21028;-54
2023/01/01 01:19:29;;;;;;;18.17;9.43;;;;;;;7.97;83.54;100688.20;1666603;86;21043;-55
2023/01/01 01:21:59;;;;;;;17.85;9.60;;;;;;;7.98;83.48;100683.93;1639661;86;21061;-55
2023/01/01 01:24:31;;;;;;;17.57;10.23;;;;;;;7.99;83.43;100689.73;1563820;91;21135;-55
2023/01/01 01:27:01;;;;;;;13.98;8.93;;;;;;;8.01;83.44;100684.95;1582070;91;21083;-54
2023/01/01 01:29:31;;;;;;;16.42;9.10;;;;;;;8.04;83.49;100697.39;1582199;91;21071;-55
2023/01/01 01:32:01;;;;;;;15.93;9.98;;;;;;;8.05;83.54;100686.81;1531014;94;21542;-55
2023/01/01 01:34:31;;;;;;;16.25;9.40;;;;;;;8.07;83.58;100680.16;1557711;91;21227;-55
2023/01/01 01:37:01;;;;;;;16.27;9.78;;;;;;;8.09;83.56;100681.34;1508290;95;21079;-56
2023/01/01 01:39:32;;;;;;;17.12;9.70;;;;;;;8.11;83.53;100669.74;1490051;95;21135;-55
2023/01/01 01:42:03;;;;;;;18.27;9.68;;;;;;;8.14;83.49;100668.03;1508314;95;21548;-56
2023/01/01 01:44:56;;;;;;;16.95;9.73;;;;;;;8.14;83.45;100662.05;1502765;95;21150;-55
2023/01/01 01:47:52;;;;;;;15.40;9.40;;;;;;;8.16;83.51;100680.98;1512234;95;21141;-54
2023/01/01 01:50:37;;;;;;;14.85;9.38;;;;;;;8.17;83.54;100679.95;1563256;91;21086;-55
2023/01/01 01:53:23;;;;;;;15.18;9.13;;;;;;;8.18;83.55;100665.28;1582890;91;21210;-55
2023/01/01 01:56:00;;;;;;;14.47;8.80;;;;;;;8.23;83.49;100665.61;1582963;91;21470;-55
2023/01/01 01:58:30;;;;;;;15.00;8.08;;;;;;;8.25;83.46;100674.47;1582649;91;21098;-54
2023/01/01 02:00:59;;;;;;;13.53;8.35;;;;;;;8.27;83.44;100676.51;1581839;86;21107;-56
2023/01/01 02:03:52;;;;;;;13.08;8.68;;;;;;;8.29;83.45;100667.63;1666541;86;21458;-56
2023/01/01 02:06:23;;;;;;;15.38;8.93;;;;;;;8.33;83.40;100670.38;1670971;86;21023;-54
2023/01/01 02:08:55;;;;;;;17.40;9.30;;;;;;;8.33;83.31;100662.19;1514272;93;21203;-55
2023/01/01 02:11:25;;;;;;;15.40;8.48;;;;;;;8.35;83.25;100664.23;1555788;92;21142;-56
2023/01/01 02:13:54;;;;;;;14.95;8.78;;;;;;;8.37;83.21;100652.61;1555818;92;21158;-55
2023/01/01 02:16:41;;;;;;;13.68;8.58;;;;;;;8.39;83.13;100647.83;1555859;92;21097;-54
2023/01/01 02:19:18;;;;;;;15.35;10.25;;;;;;;8.41;83.08;100641.67;1556372;92;21096;-55
2023/01/01 02:22:28;;;;;;;17.87;10.93;;;;;;;8.43;83.09;100646.95;1556078;92;21517;-55
2023/01/01 02:25:15;;;;;;;19.40;10.90;;;;;;;8.44;83.06;100660.44;1558349;92;21260;-55
2023/01/01 02:28:02;;;;;;;19.35;10.85;;;;;;;8.46;83.02;100658.92;1619204;88;21495;-55
2023/01/01 02:30:32;;;;;;;18.07;10.50;;;;;;;8.46;83.03;100661.14;1632660;88;21143;-54
2023/01/01 02:33:10;;;;;;;14.85;9.65;;;;;;;8.47;83.02;100660.11;1646688;86;21063;-54
2023/01/01 02:35:45;;;;;;;14.73;8.68;;;;;;;8.49;83.01;100659.41;1647115;86;21126;-55
2023/01/01 02:38:35;;;;;;;15.80;8.85;;;;;;;8.50;83.00;100664.36;1623600;86;21616;-54
2023/01/01 02:41:09;;;;;;;15.30;9.18;;;;;;;8.51;83.01;100664.70;1665567;86;21577;-55
2023/01/01 02:43:39;;;;;;;15.70;9.68;;;;;;;8.51;83.01;100655.99;1609391;89;21069;-55
2023/01/01 02:46:11;;;;;;;17.32;8.98;;;;;;;8.54;83.02;100656.16;1590109;89;21146;-55
2023/01/01 02:48:50;;;;;;;13.28;7.90;;;;;;;8.53;83.00;100641.64;1560516;90;21337;-56
2023/01/01 02:51:43;;;;;;;14.07;7.67;;;;;;;8.55;83.02;100644.20;1585123;90;21099;-55
2023/01/01 02:54:21;;;;;;;13.70;7.53;;;;;;;8.56;83.01;100649.48;1585335;90;21615;-55
2023/01/01 02:57:06;;;;;;;13.08;7.17;;;;;;;8.57;83.02;100652.55;1585137;90;21079;-55
2023/01/01 03:02:59;;;;;;;14.55;7.78;;;;;;;8.60;83.05;100645.88;1572067;90;21115;-55
2023/01/01 03:06:21;;;;;;;15.05;7.80;;;;;;;8.60;83.08;100641.78;1585436;90;21103;-54
2023/01/01 03:08:19;;;;;;;11.63;7.08;;;;;;;8.63;83.04;100646.03;1584997;90;21075;-54
2023/01/01 03:11:09;;;;;;;10.32;6.60;;;;;;;8.65;83.02;100644.83;1585558;90;21112;-54
2023/01/01 03:13:59;;;;;;;12.70;7.25;;;;;;;8.67;83.05;100648.74;1616247;88;21464;-54
2023/01/01 03:16:52;;;;;;;11.50;7.53;;;;;;;8.68;83.05;100644.98;1635254;87;21064;-55
2023/01/01 03:19:31;;;;;;;12.37;7.12;;;;;;;8.69;83.09;100657.61;1635291;88;21024;-55
2023/01/01 03:22:09;;;;;;;11.00;6.87;;;;;;;8.70;83.13;100656.58;1635270;88;21103;-55
2023/01/01 03:24:48;;;;;;;10.32;6.60;;;;;;;8.72;83.16;100649.05;1593932;87;21527;-55
2023/01/01 03:27:24;;;;;;;10.45;6.42;;;;;;;8.77;83.16;100650.73;1608993;87;21040;-54
2023/01/01 03:29:55;;;;;;;9.63;6.53;;;;;;;8.78;83.08;100649.19;1609288;87;21092;-55
2023/01/01 03:32:59;;;;;;;10.58;7.12;;;;;;;8.80;83.09;100652.59;1608284;87;21103;-55
2023/01/01 03:35:04;;;;;;;10.60;6.67;;;;;;;8.80;83.10;100654.47;1634136;86;21028;-54
2023/01/01 03:37:34;;;;;;;10.78;6.90;;;;;;;8.82;83.14;100653.77;1608507;87;21059;-55
2023/01/01 03:40:07;;;;;;;9.48;6.20;;;;;;;8.82;83.12;100658.72;1608385;87;22037;-55
2023/01/01 03:42:43;;;;;;;10.72;6.80;;;;;;;8.85;83.11;100652.05;1608494;87;21479;-55
2023/01/01 03:45:29;;;;;;;11.55;6.45;;;;;;;8.88;83.09;100654.42;1609019;87;21503;-55
2023/01/01 03:47:59;;;;;;;9.00;5.90;;;;;;;8.89;83.11;100652.88;1638151;87;21035;-55
2023/01/01 03:50:47;;;;;;;12.43;6.92;;;;;;;8.91;83.10;100662.25;1608846;87;21141;-55
2023/01/01 03:53:40;;;;;;;10.70;6.70;;;;;;;8.93;83.11;100662.92;1622774;86;21179;-55
2023/01/01 03:56:21;;;;;;;10.20;6.30;;;;;;;8.93;83.05;100649.27;1637947;87;21080;-54
2023/01/01 03:59:01;;;;;;;9.65;6.20;;;;;;;8.94;83.06;100656.43;1637843;87;21031;-55
2023/01/01 04:01:35;;;;;;;9.98;6.35;;;;;;;8.97;83.06;100667.00;1637844;87;21139;-54
2023/01/01 04:04:05;;;;;;;11.40;6.30;;;;;;;8.98;83.08;100661.87;1637722;86;21546;-54
2023/01/01 04:06:36;;;;;;;10.38;6.35;;;;;;;9.00;83.12;100669.89;1637963;87;21162;-56
2023/01/01 04:09:09;;;;;;;11.33;6.80;;;;;;;9.02;83.11;100665.09;1637917;87;21218;-55
2023/01/01 04:12:02;;;;;;;9.95;6.50;;;;;;;9.04;83.07;100666.61;1558409;91;21077;-55
2023/01/01 04:14:39;;;;;;;10.98;6.62;;;;;;;9.04;83.05;100674.81;1577164;91;21503;-54
2023/01/01 04:17:10;;;;;;;10.78;6.22;;;;;;;9.06;83.06;100665.91;1556958;91;21088;-54
2023/01/01 04:19:39;;;;;;;9.53;5.78;;;;;;;9.07;83.07;100663.52;1577142;91;21513;-53
2023/01/01 04:22:11;;;;;;;10.75;6.15;;;;;;;9.09;83.13;100666.06;1577299;91;21064;-54
2023/01/01 04:24:42;;;;;;;10.58;6.20;;;;;;;9.09;83.16;100660.08;1557509;91;21598;-54
2023/01/01 04:27:12;;;;;;;13.22;6.87;;;;;;;9.13;83.17;100655.98;1579164;91;21064;-53
2023/01/01 04:29:41;;;;;;;11.85;6.40;;;;;;;9.14;83.16;100659.05;1580077;88;21085;-54
2023/01/01 04:32:13;;;;;;;9.93;6.08;;;;;;;9.18;83.12;100652.19;1649029;87;21246;-54
2023/01/01 04:34:43;;;;;;;9.33;5.22;;;;;;;9.18;83.10;100655.44;1648890;87;21044;-54
2023/01/01 04:37:12;;;;;;;10.80;5.53;;;;;;;9.20;83.09;100661.05;1648830;87;21044;-55
2023/01/01 04:39:42;;;;;;;9.48;5.65;;;;;;;9.23;83.08;100665.30;1600720;90;21049;-55
2023/01/01 04:42:11;;;;;;;10.80;5.85;;;;;;;9.26;83.05;100662.72;1631187;87;21025;-53
2023/01/01 04:44:41;;;;;;;9.55;5.12;;;;;;;9.28;83.03;100662.02;1648750;87;21075;-55
2023/01/01 04:47:10;;;;;;;9.28;5.92;;;;;;;9.27;83.05;100661.69;1648819;86;21176;-54
2023/01/01 04:49:41;;;;;;;10.53;5.75;;;;;;;9.28;83.07;100663.39;1600584;90;21474;-54
2023/01/01 04:52:13;;;;;;;8.55;5.60;;;;;;;9.27;83.06;100662.54;1648813;87;21100;-53
2023/01/01 04:54:42;;;;;;;10.32;5.30;;;;;;;9.27;83.11;100665.27;1648905;87;21466;-53
2023/01/01 04:57:12;;;;;;;8.93;5.20;;;;;;;9.28;83.15;100661.51;1649191;87;21108;-53
2023/01/01 04:59:45;;;;;;;8.40;5.87;;;;;;;9.29;83.16;100670.05;1648721;87;21024;-53
2023/01/01 05:02:14;;;;;;;9.58;5.92;;;;;;;9.31;83.18;100675.33;1648836;86;21092;-53
2023/01/01 05:04:46;;;;;;;10.23;5.60;;;;;;;9.32;83.17;100677.03;1648804;87;21052;-53
2023/01/01 05:07:17;;;;;;;8.50;5.55;;;;;;;9.31;83.13;100658.41;1648875;86;21052;-54
2023/01/01 05:09:46;;;;;;;9.33;5.60;;;;;;;9.33;83.10;100670.02;1649117;87;21080;-55
2023/01/01 05:12:17;;;;;;;9.50;5.08;;;;;;;9.34;83.02;100677.19;1581585;90;21093;-54
2023/01/01 05:14:49;;;;;;;8.63;5.53;;;;;;;9.34;82.98;100674.97;1648639;87;21747;-53
2023/01/01 05:17:18;;;;;;;7.72;5.17;;;;;;;9.33;83.00;100666.42;1648775;87;21071;-54
2023/01/01 05:19:47;;;;;;;8.60;5.45;;;;;;;9.31;83.04;100667.13;1648958;87;21045;-53
2023/01/01 05:22:19;;;;;;;10.55;5.22;;;;;;;9.28;83.14;100677.06;1609949;87;21080;-54
2023/01/01 05:24:50;;;;;;;8.63;5.50;;;;;;;9.28;83.22;100668.86;1653205;85;21541;-55
2023/01/01 05:27:19;;;;;;;8.25;5.22;;;;;;;9.27;83.30;100679.47;1665392;86;21066;-55
2023/01/01 05:29:49;;;;;;;8.90;5.50;;;;;;;9.25;83.29;100676.06;1609248;89;21113;-53
2023/01/01 05:32:18;;;;;;;10.50;5.80;;;;;;;9.24;83.34;100689.40;1609305;87;21111;-54
2023/01/01 05:34:48;;;;;;;10.03;5.62;;;;;;;9.20;83.44;100671.14;1639337;87;21143;-53
2023/01/01 05:37:18;;;;;;;10.28;5.35;;;;;;;9.17;83.60;100673.72;1646230;86;21023;-54
2023/01/01 05:39:48;;;;;;;9.50;5.55;;;;;;;9.14;83.73;100682.28;1665456;86;21048;-53
2023/01/01 05:42:18;;;;;;;9.35;5.40;;;;;;;9.12;83.91;100680.25;1609347;89;21061;-55
2023/01/01 05:44:48;;;;;;;9.63;5.83;;;;;;;9.08;84.04;100672.56;1639545;87;21095;-56
2023/01/01 05:47:20;;;;;;;9.83;5.35;;;;;;;9.06;84.20;100674.11;1646419;86;21023;-53
2023/01/01 05:49:51;;;;;;;7.70;5.12;;;;;;;9.05;84.36;100672.92;1609451;89;21148;-54
2023/01/01 05:52:20;;;;;;;9.13;4.92;;;;;;;9.04;84.43;100671.22;1639452;87;21064;-54
2023/01/01 05:54:52;;;;;;;8.55;5.50;;;;;;;9.04;84.47;100684.37;1646740;86;21490;-54
2023/01/01 05:57:22;;;;;;;9.58;5.47;;;;;;;9.02;84.58;100676.88;1589728;89;22052;-55
2023/01/01 05:59:53;;;;;;;8.58;4.90;;;;;;;9.01;84.71;100683.88;1639714;87;21088;-56
2023/01/01 06:02:24;;;;;;;11.10;6.15;;;;;;;8.99;84.82;100683.22;1665448;86;21047;-53
2023/01/01 06:04:54;;;;;;;10.23;5.90;;;;;;;8.98;84.92;100687.83;1665609;86;21514;-56
2023/01/01 06:07:25;;;;;;;10.65;5.15;;;;;;;8.96;85.01;100693.99;1665519;86;21095;-54
2023/01/01 06:09:54;;;;;;;11.63;5.58;;;;;;;8.97;85.21;100699.80;1665516;86;21443;-53
2023/01/01 06:12:24;;;;;;;8.63;5.58;;;;;;;8.98;85.26;100702.86;1609083;89;21073;-54
2023/01/01 06:14:53;;;;;;;8.55;5.45;;;;;;;8.97;85.34;100699.80;1609131;87;21513;-54
2023/01/01 06:17:23;;;;;;;8.65;5.37;;;;;;;8.99;85.45;100714.64;1639303;87;21095;-54
2023/01/01 06:19:52;;;;;;;7.62;5.05;;;;;;;9.00;85.45;100715.83;1646404;86;21060;-53
2023/01/01 06:22:22;;;;;;;8.05;4.72;;;;;;;9.01;85.41;100709.84;1665561;86;21056;-55
2023/01/01 06:24:51;;;;;;;8.20;4.87;;;;;;;9.01;85.44;100710.70;1607681;89;21164;-55
2023/01/01 06:27:21;;;;;;;11.75;5.10;;;;;;;9.03;85.46;100714.62;1648729;87;21044;-54
2023/01/01 06:29:51;;;;;;;8.08;4.85;;;;;;;9.05;85.51;100717.51;1600458;90;21172;-53
2023/01/01 06:32:21;;;;;;;9.53;5.12;;;;;;;9.05;85.48;100709.83;1648984;87;21496;-54
2023/01/01 06:34:52;;;;;;;11.18;5.10;;;;;;;9.05;85.47;100706.58;1648768;87;21044;-55
2023/01/01 06:37:21;;;;;;;8.43;4.78;;;;;;;9.06;85.43;100704.17;1648885;87;21040;-53
2023/01/01 06:39:52;;;;;;;9.10;5.25;;;;;;;9.06;85.42;100703.33;1600581;90;21481;-56
2023/01/01 06:42:21;;;;;;;8.48;4.72;;;;;;;9.06;85.42;100695.98;1648826;87;21119;-54
2023/01/01 06:44:51;;;;;;;8.98;4.78;;;;;;;9.06;85.49;100707.42;1649193;87;21496;-54
2023/01/01 06:47:21;;;;;;;9.10;5.15;;;;;;;9.06;85.55;100711.02;1600417;90;21117;-54
2023/01/01 06:49:51;;;;;;;8.20;4.65;;;;;;;9.06;85.58;100709.64;1632381;87;21048;-55
2023/01/01 06:52:21;;;;;;;8.65;4.72;;;;;;;9.07;85.61;100707.25;1600793;90;21062;-54
2023/01/01 06:54:52;;;;;;;6.87;4.20;;;;;;;9.08;85.65;100705.36;1648767;87;21068;-55
2023/01/01 06:57:22;;;;;;;8.80;5.87;;;;;;;9.11;85.62;100707.77;1581748;90;21077;-55
2023/01/01 06:59:52;;;;;;;7.05;4.42;;;;;;;9.09;85.61;100694.25;1632186;87;21128;-54
2023/01/01 07:02:22;;;;;;;9.63;4.10;;;;;;;9.12;85.66;100700.75;1648924;87;21463;-54
2023/01/01 07:04:52;;;;;;;9.65;4.50;;;;;;;9.14;85.63;100699.20;1529535;94;21089;-55
2023/01/01 07:07:23;;;;;;;7.92;4.40;;;;;;;9.16;85.61;100703.46;1582498;91;21115;-54
2023/01/01 07:09:54;;;;;;;8.23;4.65;;;;;;;9.18;85.61;100705.50;1576040;91;21488;-55
2023/01/01 07:12:25;;;;;;;9.13;4.67;;;;;;;9.20;85.54;100704.80;1582486;91;21091;-54
2023/01/01 07:14:57;;;;;;;8.13;4.90;;;;;;;9.21;85.49;100717.44;1582632;91;21522;-54
2023/01/01 07:17:28;;;;;;;8.73;4.78;;;;;;;9.23;85.50;100723.23;1556547;91;21118;-55
2023/01/01 07:19:59;;;;;;;8.15;4.50;;;;;;;9.25;85.47;100720.66;1582814;91;21121;-53
2023/01/01 07:22:29;;;;;;;7.62;4.50;;;;;;;9.27;85.42;100716.38;1596498;87;21064;-55
2023/01/01 07:24:59;;;;;;;7.60;4.15;;;;;;;9.30;85.39;100717.38;1650396;86;21120;-54
2023/01/01 07:27:28;;;;;;;7.45;3.85;;;;;;;9.34;85.39;100712.73;1609225;89;21101;-56
2023/01/01 07:29:57;;;;;;;7.17;4.30;;;;;;;9.36;85.31;100701.09;1609207;88;21046;-56
2023/01/01 07:32:27;;;;;;;6.40;4.35;;;;;;;9.41;85.29;100713.70;1639574;87;21232;-55
2023/01/01 07:34:57;;;;;;;8.43;4.35;;;;;;;9.47;85.19;100714.86;1665396;86;21071;-55
2023/01/01 07:37:28;;;;;;;9.55;4.50;;;;;;;9.51;85.04;100715.67;1609405;89;21037;-54
2023/01/01 07:39:58;;;;;;;9.18;5.10;;;;;;;9.56;84.87;100728.80;1635410;88;21483;-57
2023/01/01 07:42:29;;;;;;;9.68;4.65;;;;;;;9.61;84.55;100717.31;1639282;87;21135;-54
2023/01/01 07:44:59;;;;;;;8.75;4.70;;;;;;;9.68;84.36;100719.13;1646463;86;21067;-54
2023/01/01 07:47:29;;;;;;;7.08;3.98;;;;;;;9.72;84.10;100716.35;1609513;89;21069;-54
2023/01/01 07:49:59;;;;;;;5.67;3.92;;;;;;;9.78;83.85;100707.95;1639760;87;21068;-55
2023/01/01 07:52:31;;;;;;;8.28;4.50;;;;;;;9.83;83.52;100721.41;1665601;86;21080;-54
2023/01/01 07:55:01;;;;;;;6.65;4.15;;;;;;;9.88;83.28;100714.53;1609449;89;21069;-54
2023/01/01 07:57:31;;;;;;;6.78;4.20;;;;;;;9.90;82.89;100714.68;1639505;87;21051;-55
2023/01/01 08:00:00;;;;;;;6.75;4.12;;;;;;;9.94;82.80;100710.53;1665768;86;21079;-56
2023/01/01 08:02:36;;;;;;;6.80;4.03;;;;;;;9.97;82.62;100712.91;1608407;89;21545;-55
2023/01/01 08:05:06;;;;;;;7.55;4.22;;;;;;;10.01;82.46;100707.91;1588438;89;21086;-55
2023/01/01 08:07:37;;;;;;;6.42;3.85;;;;;;;10.03;82.24;100708.56;1636658;87;21510;-55
2023/01/01 08:10:08;;;;;;;7.00;4.30;;;;;;;10.06;82.14;100706.83;1639451;87;21082;-54
2023/01/01 08:12:40;;;;;;;6.03;3.77;;;;;;;10.09;81.94;100705.08;1665471;86;21098;-55
2023/01/01 08:15:11;;;;;;;7.08;3.50;;;;;;;10.12;81.80;100706.08;1665566;86;21083;-55
2023/01/01 08:17:42;;;;;;;8.73;4.60;;;;;;;10.16;81.28;100699.19;1665502;86;21495;-56
2023/01/01 08:20:14;;;;;;;11.68;4.53;;;;;;;10.22;81.21;100703.09;1646654;86;21044;-55
2023/01/01 08:22:44;;;;;;;6.37;3.75;;;;;;;10.27;81.05;100691.05;1589806;89;21153;-54
2023/01/01 08:25:14;;;;;;;6.30;3.95;;;;;;;10.30;80.92;100692.90;1639338;87;21056;-54
2023/01/01 08:27:43;;;;;;;6.55;4.10;;;;;;;10.33;80.67;100694.41;1666892;86;21635;-54
2023/01/01 08:30:14;;;;;;;7.83;4.35;;;;;;;10.36;80.60;100699.50;1657394;86;21467;-53
2023/01/01 08:32:44;;;;;;;7.25;4.78;;;;;;;10.37;80.48;100696.58;1640324;86;21091;-54
2023/01/01 08:35:15;;;;;;;7.58;4.25;;;;;;;10.41;80.35;100704.78;1666858;86;21542;-54
2023/01/01 08:37:45;;;;;;;8.48;4.15;;;;;;;10.46;80.16;100705.58;1657430;86;21447;-55
2023/01/01 08:40:14;;;;;;;8.10;4.40;;;;;;;10.50;80.10;100708.80;1666399;86;21171;-53
2023/01/01 08:42:44;;;;;;;8.03;4.58;;;;;;;10.54;79.98;100700.52;1666820;86;21111;-55
2023/01/01 08:45:14;;;;;;;7.20;4.40;;;;;;;10.60;79.65;100706.61;1657392;86;21048;-53
2023/01/01 08:47:47;;;;;;;7.92;4.70;;;;;;;10.66;79.41;100701.73;1666516;86;21111;-56
2023/01/01 08:50:17;;;;;;;8.75;5.10;;;;;;;10.70;79.24;100689.35;1667177;86;21110;-55
2023/01/01 08:52:46;;;;;;;7.78;4.95;;;;;;;10.78;78.95;100693.35;1657230;86;21674;-54
2023/01/01 08:55:16;;;;;;;6.85;4.20;;;;;;;10.83;78.70;100692.78;1666440;86;21059;-55
2023/01/01 08:57:49;;;;;;;9.45;4.62;;;;;;;10.87;78.50;100693.57;1657286;86;21056;-54
2023/01/01 09:00:19;;;;;;;7.55;4.25;;;;;;;10.93;78.07;100694.69;1640023;86;21095;-56
2023/01/01 09:02:49;;;;;;;6.72;4.12;;;;;;;10.94;77.83;100694.50;1666784;86;21047;-55
2023/01/01 09:05:18;;;;;;;8.70;4.53;;;;;;;10.97;77.61;100682.30;1657343;86;21447;-55
2023/01/01 09:07:49;;;;;;;10.03;5.15;;;;;;;10.99;77.28;100694.77;1640224;86;21059;-54
2023/01/01 09:10:18;;;;;;;6.70;4.42;;;;;;;11.00;76.93;100686.88;1640020;86;21040;-54
2023/01/01 09:12:48;;;;;;;8.50;4.83;;;;;;;11.01;76.79;100678.13;1666567;86;21026;-55
2023/01/01 09:15:19;;;;;;;8.53;4.80;;;;;;;11.01;76.69;100670.75;1551936;90;21099;-55
2023/01/01 09:17:49;;;;;;;8.73;5.10;;;;;;;11.03;76.68;100682.89;1591637;90;21082;-55
2023/01/01 09:20:19;;;;;;;9.00;4.33;;;;;;;11.04;76.50;100681.84;1591756;90;21225;-54
2023/01/01 09:22:49;;;;;;;7.90;4.70;;;;;;;11.06;76.35;100676.53;1571352;90;21071;-55
2023/01/01 09:25:18;;;;;;;8.65;4.50;;;;;;;11.06;76.15;100658.70;1591953;90;21081;-55
2023/01/01 09:27:48;;;;;;;9.35;4.80;;;;;;;11.09;76.10;100661.06;1577970;90;21118;-55
2023/01/01 09:30:18;;;;;;;6.45;4.20;;;;;;;11.10;76.01;100666.02;1586410;90;21107;-55
2023/01/01 09:32:49;;;;;;;8.13;4.45;;;;;;;11.11;76.08;100668.56;1596722;86;21107;-55
2023/01/01 09:35:19;;;;;;;9.53;4.50;;;;;;;11.12;76.02;100663.93;1665539;86;21064;-55
2023/01/01 09:37:49;;;;;;;7.87;4.35;;;;;;;11.14;75.84;100661.00;1583475;89;21113;-55
2023/01/01 09:40:49;;;;;;;11.70;5.25;;;;;;;11.15;75.59;100661.33;1665647;86;21503;-55
2023/01/01 09:43:42;;;;;;;10.68;4.87;;;;;;;11.15;75.61;100664.06;1611632;89;21109;-57
2023/01/01 09:46:14;;;;;;;8.60;4.05;;;;;;;11.16;75.42;100657.53;1665860;86;21103;-55
2023/01/01 09:48:55;;;;;;;8.70;4.50;;;;;;;11.17;75.33;100659.23;1665651;86;21590;-56
2023/01/01 09:51:24;;;;;;;6.72;4.55;;;;;;;11.18;75.42;100663.16;1665585;86;21011;-55
2023/01/01 09:54:23;;;;;;;8.38;4.83;;;;;;;11.19;75.33;100650.29;1611692;89;21072;-54
2023/01/01 09:56:55;;;;;;;9.90;4.95;;;;;;;11.21;75.30;100653.69;1665488;86;21484;-57
2023/01/01 09:59:26;;;;;;;7.20;4.20;;;;;;;11.23;74.93;100651.59;1665586;86;21541;-55
2023/01/01 10:02:21;;;;;;;8.85;4.47;;;;;;;11.24;74.97;100655.52;1665670;86;21099;-56
2023/01/01 10:05:07;;;;;;;13.72;4.58;;;;;;;11.26;75.06;100651.20;1665621;86;21095;-55
2023/01/01 10:07:52;;;;;;;8.00;4.83;;;;;;;11.27;75.03;100656.49;1665580;86;21094;-56
2023/01/01 10:10:54;;;;;;;8.08;4.65;;;;;;;11.28;74.94;100649.11;1665535;86;21048;-56
2023/01/01 10:13:41;;;;;;;8.15;4.67;;;;;;;11.30;74.87;100651.14;1611812;89;21084;-55
2023/01/01 10:16:25;;;;;;;9.78;4.83;;;;;;;11.33;74.80;100643.88;1659214;86;21475;-57
2023/01/01 10:19:02;;;;;;;7.83;5.15;;;;;;;11.35;74.74;100645.39;1665478;86;21086;-56
2023/01/01 10:21:35;;;;;;;6.33;4.15;;;;;;;11.38;74.58;100642.25;1611920;89;21073;-55
2023/01/01 10:24:49;;;;;;;8.28;4.25;;;;;;;11.40;74.50;100627.81;1636704;86;21067;-56
2023/01/01 10:27:42;;;;;;;8.23;4.30;;;;;;;11.44;74.39;100633.23;1638216;86;21083;-55
2023/01/01 10:30:20;;;;;;;8.10;3.92;;;;;;;11.49;74.41;100634.00;1661240;86;21463;-54
2023/01/01 10:32:52;;;;;;;9.08;4.83;;;;;;;11.50;74.06;100631.59;1661362;86;21123;-56
2023/01/01 10:35:29;;;;;;;9.78;4.40;;;;;;;11.54;74.10;100638.38;1603532;89;21061;-55
2023/01/01 10:38:01;;;;;;;6.90;4.28;;;;;;;11.57;74.02;100641.25;1622763;86;21029;-56
2023/01/01 10:40:32;;;;;;;9.90;4.80;;;;;;;11.59;73.89;100646.86;1621849;86;21052;-55
2023/01/01 10:43:02;;;;;;;9.38;4.70;;;;;;;11.62;73.77;100643.72;1661482;86;21020;-56
2023/01/01 10:45:42;;;;;;;8.08;4.92;;;;;;;11.65;73.84;100647.96;1603296;89;21500;-54
2023/01/01 10:48:22;;;;;;;10.25;7.33;;;;;;;11.67;73.76;100645.87;1641324;86;21103;-54
2023/01/01 10:51:00;;;;;;;9.90;6.35;;;;;;;11.69;73.71;100652.01;1603459;89;21065;-56
2023/01/01 10:53:40;;;;;;;11.20;5.47;;;;;;;11.72;73.39;100644.25;1661275;86;21487;-56
2023/01/01 10:56:16;;;;;;;10.05;5.10;;;;;;;11.77;73.29;100640.06;1661270;86;21076;-55
2023/01/01 10:58:53;;;;;;;8.35;4.95;;;;;;;11.79;73.21;100639.38;1585575;89;21125;-55
2023/01/01 11:01:27;;;;;;;10.10;5.00;;;;;;;11.80;73.05;100648.78;1661444;86;21051;-55
2023/01/01 11:04:16;;;;;;;10.95;5.15;;;;;;;11.82;72.92;100641.20;1661190;86;21079;-55
2023/01/01 11:06:46;;;;;;;11.57;5.35;;;;;;;11.84;72.90;100646.48;1603277;89;21101;-56
2023/01/01 11:09:27;;;;;;;10.63;5.15;;;;;;;11.84;72.98;100647.86;1661311;86;21039;-55
2023/01/01 11:11:59;;;;;;;7.65;4.67;;;;;;;11.86;72.96;100645.76;1603537;89;21108;-56
2023/01/01 11:14:40;;;;;;;10.03;4.42;;;;;;;11.86;72.95;100644.39;1641666;86;21059;-55
2023/01/01 11:17:10;;;;;;;9.28;4.70;;;;;;;11.87;72.87;100643.34;1603203;89;21481;-56
2023/01/01 11:19:40;;;;;;;7.53;4.60;;;;;;;11.89;72.80;100650.33;1661142;86;21496;-55
2023/01/01 11:22:33;;;;;;;9.90;4.87;;;;;;;11.93;72.74;100649.41;1660177;86;21541;-55
2023/01/01 11:25:03;;;;;;;9.23;5.35;;;;;;;11.94;72.79;100642.34;1603265;89;21088;-55
2023/01/01 11:27:31;;;;;;;7.83;4.95;;;;;;;11.98;72.62;100651.02;1639151;86;21067;-55
2023/01/01 11:30:28;;;;;;;6.20;4.33;;;;;;;11.99;72.51;100656.84;1665570;86;21709;-56
2023/01/01 11:33:01;;;;;;;6.35;4.20;;;;;;;12.02;72.16;100651.79;1615739;86;21135;-55
2023/01/01 11:35:39;;;;;;;9.33;4.37;;;;;;;12.06;72.19;100635.23;1611731;89;21555;-55
2023/01/01 11:38:14;;;;;;;9.18;4.37;;;;;;;12.10;72.13;100639.80;1664167;86;21099;-55
2023/01/01 11:40:50;;;;;;;6.50;4.40;;;;;;;12.12;72.09;100622.59;1665552;86;21052;-55
2023/01/01 11:43:26;;;;;;;8.65;4.85;;;;;;;12.16;71.85;100617.54;1611930;89;21209;-55
2023/01/01 11:45:56;;;;;;;9.13;4.62;;;;;;;12.20;71.70;100621.58;1665687;86;21119;-54
2023/01/01 11:48:31;;;;;;;8.85;5.03;;;;;;;12.23;71.53;100631.63;1583693;89;21104;-55
2023/01/01 11:51:04;;;;;;;6.97;4.17;;;;;;;12.27;71.48;100626.58;1665395;86;21060;-56
2023/01/01 11:53:37;;;;;;;6.75;4.50;;;;;;;12.29;71.27;100629.97;1611849;89;21117;-54
2023/01/01 11:56:24;;;;;;;7.22;4.28;;;;;;;12.31;71.10;100625.12;1665751;86;21083;-53
2023/01/01 11:59:00;;;;;;;7.70;4.65;;;;;;;12.33;70.89;100615.63;1610998;89;21089;-55
2023/01/01 12:01:44;;;;;;;7.37;4.65;;;;;;;12.36;70.92;100624.02;1601462;89;21182;-55
2023/01/01 12:04:19;;;;;;;7.72;4.30;;;;;;;12.38;70.84;100619.16;1610416;89;21525;-53